Tolar Grande, Argentina
Current Conditions -  °F | °C
As of 12:00 PM on Sunday 21 Dec 2014 (Local Time) from SASA Reporting Station
Overcast Overcast  
Wind Chill: 63°   Ceiling: 2000
Heat Index: 63°   Visibility: 5mi
Dew Point: 55°   Wind: 9mph
Humidity: 77%   Direction: 50°NE
Pressure: 29.94"   Gusts: NA
Location:  24.59°S, 67.4°W
Report Text: SASA 211500Z 05008KT 8000 SCT006 OVC02017/13 Q1014
Loading
Personal Weather Stations






























Interactive Weather Map New forecast layout! Learn more

10-Day Weather Forecast

Advertisements
Track Severe Weather on mobile